Time;durP1;ratioP1;P1;durP2;ratioP2;P2;SDS_P1;SDS_P2;PMS_P1;PMS_P2;Temp;Humidity;BMP_temperature;BMP_pressure;BME280_temperature;BME280_humidity;BME280_pressure;Samples;Min_cycle;Max_cycle;Signal;HPM_P1;HPM_P2
2022/09/30 00:02:14;;;;;;;9.02;4.22;;;;;;;16.55;52.83;100835.06;5052645;28;20032;-73
2022/09/30 00:04:39;;;;;;;5.68;4.05;;;;;;;16.42;53.76;100827.38;5053046;28;20016;-74
2022/09/30 00:07:04;;;;;;;4.60;3.78;;;;;;;16.32;53.53;100824.59;5052184;28;20037;-74
2022/09/30 00:09:30;;;;;;;5.22;4.32;;;;;;;16.34;53.52;100827.88;5052352;28;20048;-74
2022/09/30 00:11:55;;;;;;;5.88;4.50;;;;;;;16.39;53.23;100836.06;5052331;28;20025;-72
2022/09/30 00:14:22;;;;;;;5.60;4.57;;;;;;;16.31;53.06;100826.50;5052083;28;20373;-72
2022/09/30 00:16:48;;;;;;;5.78;3.78;;;;;;;16.30;53.07;100821.34;5052370;28;20466;-73
2022/09/30 00:19:14;;;;;;;6.70;4.43;;;;;;;16.23;53.01;100827.03;5052140;28;20040;-72
2022/09/30 00:21:39;;;;;;;6.03;4.22;;;;;;;16.12;53.10;100833.44;5051925;28;20136;-73
2022/09/30 00:24:05;;;;;;;6.55;3.20;;;;;;;16.05;52.77;100824.75;5052110;28;20040;-72
2022/09/30 00:26:32;;;;;;;6.43;3.78;;;;;;;15.94;52.92;100825.72;5051757;28;20043;-73
2022/09/30 00:28:59;;;;;;;5.30;3.80;;;;;;;15.95;53.10;100829.25;5052786;28;20113;-74
2022/09/30 00:31:28;;;;;;;5.70;3.78;;;;;;;15.83;53.08;100833.00;5051846;28;20045;-73
2022/09/30 00:34:06;;;;;;;5.10;3.95;;;;;;;15.95;53.33;100830.09;5051905;28;20037;-71
2022/09/30 00:36:40;;;;;;;5.25;3.85;;;;;;;15.86;53.19;100828.13;5051665;28;20124;-73
2022/09/30 00:39:07;;;;;;;3.80;3.40;;;;;;;15.80;53.19;100835.41;5051786;28;20120;-73
2022/09/30 00:41:33;;;;;;;3.92;3.10;;;;;;;15.73;53.41;100832.91;5051888;28;20033;-73
2022/09/30 00:43:59;;;;;;;4.60;3.47;;;;;;;15.77;53.37;100835.91;5038576;28;20545;-72
2022/09/30 00:46:39;;;;;;;4.13;3.50;;;;;;;15.72;53.43;100846.72;5039285;28;20112;-72
2022/09/30 00:49:14;;;;;;;5.88;3.15;;;;;;;15.63;53.66;100850.97;5051888;28;20484;-72
2022/09/30 00:51:46;;;;;;;5.82;3.70;;;;;;;15.59;53.46;100852.53;5024947;28;20037;-73
2022/09/30 00:54:18;;;;;;;4.15;3.55;;;;;;;15.55;53.43;100854.13;5031711;28;20485;-72
2022/09/30 00:56:49;;;;;;;6.78;3.75;;;;;;;15.37;53.50;100846.38;5031540;28;20041;-71
2022/09/30 00:59:23;;;;;;;5.28;3.58;;;;;;;15.43;53.53;100848.88;5031807;28;20108;-72
2022/09/30 01:01:50;;;;;;;4.80;3.67;;;;;;;15.36;53.52;100850.13;5032418;28;20083;-74
2022/09/30 01:04:22;;;;;;;8.75;3.67;;;;;;;15.29;53.37;100838.72;5031751;28;20034;-73
2022/09/30 01:06:48;;;;;;;5.82;3.75;;;;;;;15.25;54.01;100843.00;5031090;28;20416;-72
2022/09/30 01:09:14;;;;;;;7.65;3.90;;;;;;;15.33;53.91;100837.13;5031531;28;20127;-72
2022/09/30 01:11:40;;;;;;;5.10;3.90;;;;;;;15.29;53.76;100852.25;5031617;28;20041;-72
2022/09/30 01:14:13;;;;;;;6.38;4.05;;;;;;;15.38;54.07;100851.53;5032223;28;20040;-73
2022/09/30 01:16:50;;;;;;;4.35;3.40;;;;;;;15.40;53.94;100846.69;5031404;28;20053;-73
2022/09/30 01:19:41;;;;;;;10.27;3.97;;;;;;;15.32;53.82;100855.25;5031387;28;20413;-71
2022/09/30 01:22:21;;;;;;;7.10;3.93;;;;;;;15.23;53.75;100855.97;5031354;28;20069;-74
2022/09/30 01:24:55;;;;;;;6.20;4.75;;;;;;;15.14;53.82;100852.91;5031667;28;20088;-71
2022/09/30 01:27:46;;;;;;;4.18;3.60;;;;;;;15.10;53.81;100849.06;5031715;28;20398;-72
2022/09/30 01:30:11;;;;;;;;;;;;;;;15.03;53.79;100843.03;5032154;28;20037;-73
2022/09/30 01:32:44;;;;;;;10.27;3.50;;;;;;;15.04;53.82;100855.50;5035042;28;19936;-72
2022/09/30 01:35:12;;;;;;;4.18;3.58;;;;;;;15.08;53.34;100859.31;5035799;28;20026;-73
2022/09/30 01:38:00;;;;;;;6.03;4.32;;;;;;;15.08;53.53;100861.22;5034753;28;20026;-73
2022/09/30 01:40:53;;;;;;;4.93;3.33;;;;;;;14.96;53.58;100867.59;5035125;28;20036;-72
2022/09/30 01:43:24;;;;;;;6.10;4.00;;;;;;;14.94;54.10;100858.09;5034657;28;20101;-71
2022/09/30 01:46:22;;;;;;;6.95;4.40;;;;;;;15.14;53.86;100865.59;5034452;28;20049;-72
2022/09/30 01:49:26;;;;;;;6.18;4.30;;;;;;;15.21;54.02;100864.38;4973227;28;20426;-71
2022/09/30 01:52:02;;;;;;;5.55;3.53;;;;;;;15.32;53.67;100863.38;4954233;28;20041;-71
2022/09/30 01:54:41;;;;;;;4.25;3.30;;;;;;;15.33;53.56;100859.59;4954031;28;20035;-73
2022/09/30 01:57:13;;;;;;;6.07;3.75;;;;;;;15.37;53.44;100858.00;4954083;28;20074;-72
2022/09/30 01:59:43;;;;;;;7.07;4.00;;;;;;;15.38;53.64;100856.13;4953907;28;20039;-73
2022/09/30 02:02:31;;;;;;;4.22;3.22;;;;;;;15.37;53.57;100852.59;4954237;28;20114;-71
2022/09/30 02:05:01;;;;;;;6.22;3.38;;;;;;;15.39;53.54;100855.84;4953801;28;20502;-70
2022/09/30 02:07:41;;;;;;;4.60;3.78;;;;;;;15.47;53.43;100860.00;4954054;28;20582;-73
2022/09/30 02:10:15;;;;;;;5.93;4.03;;;;;;;15.48;53.58;100864.38;4953827;28;20075;-73
2022/09/30 02:12:47;;;;;;;4.03;3.38;;;;;;;15.46;53.75;100861.09;4953810;28;20571;-72
2022/09/30 02:15:18;;;;;;;4.75;3.45;;;;;;;15.50;53.92;100863.06;4953847;28;20058;-73
2022/09/30 02:17:57;;;;;;;3.90;3.00;;;;;;;15.48;53.66;100858.97;4953853;28;20191;-73
2022/09/30 02:20:30;;;;;;;5.28;4.10;;;;;;;15.34;54.36;100865.81;4960972;28;20105;-71
2022/09/30 02:23:14;;;;;;;5.32;3.63;;;;;;;15.35;53.83;100867.47;4973375;28;20031;-72
2022/09/30 02:25:46;;;;;;;5.53;4.43;;;;;;;15.26;53.90;100866.28;5013185;28;20037;-72
2022/09/30 02:28:19;;;;;;;5.93;3.83;;;;;;;15.26;53.90;100869.00;5014394;28;20049;-71
2022/09/30 02:30:50;;;;;;;4.18;3.75;;;;;;;15.26;53.70;100867.09;5014576;28;20088;-72
2022/09/30 02:33:24;;;;;;;5.57;4.03;;;;;;;15.20;53.49;100870.84;5014052;28;20065;-72
2022/09/30 02:35:54;;;;;;;5.45;3.92;;;;;;;15.13;53.61;100872.09;5014199;28;20030;-72
2022/09/30 02:38:26;;;;;;;5.32;3.88;;;;;;;15.13;53.80;100866.69;5020415;28;20021;-73
2022/09/30 02:40:57;;;;;;;4.53;3.80;;;;;;;15.04;53.50;100874.44;5034448;28;20025;-73
2022/09/30 02:43:23;;;;;;;5.03;4.30;;;;;;;15.02;53.46;100867.66;5032455;28;20116;-72
2022/09/30 02:46:07;;;;;;;6.55;4.05;;;;;;;15.02;53.37;100873.06;5048600;28;20409;-73
2022/09/30 02:48:54;;;;;;;7.00;4.10;;;;;;;14.97;53.67;100868.41;5033397;28;20033;-72
2022/09/30 02:51:36;;;;;;;5.53;4.10;;;;;;;14.92;53.64;100877.28;5033185;28;20386;-73
2022/09/30 02:54:04;;;;;;;;;;;;;;;14.91;53.32;100869.44;5033829;28;20057;-71
2022/09/30 02:56:44;;;;;;;4.75;3.80;;;;;;;14.86;53.56;100866.63;5033571;28;19913;-70
2022/09/30 02:59:09;;;;;;;4.85;3.80;;;;;;;14.86;53.39;100867.47;5033836;28;20049;-73
2022/09/30 03:01:40;;;;;;;5.65;3.55;;;;;;;14.71;53.50;100872.69;5034669;28;20063;-72
2022/09/30 03:04:09;;;;;;;4.78;3.83;;;;;;;14.65;54.05;100876.41;5034051;28;20033;-71
2022/09/30 03:06:36;;;;;;;7.20;3.92;;;;;;;14.60;53.96;100883.63;5033356;28;20057;-70
2022/09/30 03:09:02;;;;;;;3.70;3.35;;;;;;;14.61;54.25;100871.75;5033678;28;20120;-72
2022/09/30 03:11:29;;;;;;;6.28;3.53;;;;;;;14.56;54.25;100882.50;5034014;28;20493;-71
2022/09/30 03:14:33;;;;;;;4.05;3.42;;;;;;;14.58;54.25;100886.59;5034030;28;20103;-72
2022/09/30 03:17:16;;;;;;;3.95;2.85;;;;;;;14.55;53.98;100873.56;5033556;28;20108;-70
2022/09/30 03:19:59;;;;;;;5.13;3.60;;;;;;;14.55;53.88;100870.84;5033637;28;20050;-71
2022/09/30 03:22:46;;;;;;;5.15;4.20;;;;;;;14.51;53.98;100880.53;5033277;28;20041;-72
2022/09/30 03:25:23;;;;;;;6.55;3.28;;;;;;;14.51;53.81;100879.72;5033334;28;20094;-71
2022/09/30 03:27:54;;;;;;;6.00;4.03;;;;;;;14.29;54.11;100893.19;5033078;28;20065;-71
2022/09/30 03:30:25;;;;;;;;;;;;;;;14.37;54.03;100887.38;5033916;28;20041;-71
2022/09/30 03:33:20;;;;;;;7.28;3.65;;;;;;;14.41;53.77;100891.22;5033247;28;19944;-70
2022/09/30 03:35:49;;;;;;;4.47;3.40;;;;;;;14.40;53.91;100900.41;5032903;28;20053;-71
2022/09/30 03:38:23;;;;;;;5.28;3.83;;;;;;;14.41;53.80;100896.63;5033291;28;20033;-73
2022/09/30 03:41:11;;;;;;;4.25;3.72;;;;;;;14.43;53.73;100891.78;5033820;28;20138;-71
2022/09/30 03:43:43;;;;;;;6.35;3.63;;;;;;;14.34;54.06;100893.28;5032839;28;20061;-72
2022/09/30 03:46:08;;;;;;;4.47;3.40;;;;;;;14.25;53.60;100888.53;5032758;28;20132;-70
2022/09/30 03:48:36;;;;;;;5.45;3.30;;;;;;;14.18;54.13;100896.78;5048217;28;20206;-72
2022/09/30 03:51:04;;;;;;;5.78;3.22;;;;;;;14.21;54.00;100892.78;5032596;28;20045;-71
2022/09/30 03:53:29;;;;;;;11.63;3.85;;;;;;;14.10;54.73;100886.41;5032705;28;20550;-71
2022/09/30 03:55:55;;;;;;;7.13;3.20;;;;;;;14.11;55.07;100888.06;5033144;28;20029;-70
2022/09/30 03:58:24;;;;;;;4.00;3.60;;;;;;;14.16;54.85;100896.22;5032563;28;20037;-71
2022/09/30 04:00:52;;;;;;;4.60;3.22;;;;;;;14.25;54.26;100892.03;5031850;28;20037;-72
2022/09/30 04:03:20;;;;;;;3.97;2.95;;;;;;;14.15;53.75;100901.88;5026899;28;20068;-72
2022/09/30 04:05:47;;;;;;;3.90;3.13;;;;;;;14.23;54.09;100904.16;5029870;28;20034;-72
2022/09/30 04:08:12;;;;;;;4.15;3.33;;;;;;;14.22;54.35;100906.03;5022826;28;20494;-71
2022/09/30 04:10:41;;;;;;;3.90;3.05;;;;;;;14.18;54.02;100906.78;5020641;28;20029;-71
2022/09/30 04:13:07;;;;;;;3.05;2.65;;;;;;;14.09;53.84;100909.09;5014044;28;20033;-72
2022/09/30 04:15:33;;;;;;;4.47;2.67;;;;;;;14.16;53.91;100906.19;5035305;28;20039;-72
2022/09/30 04:17:59;;;;;;;5.13;2.53;;;;;;;14.07;54.22;100919.34;5051174;28;20116;-71
2022/09/30 04:20:24;;;;;;;4.03;2.33;;;;;;;14.02;54.69;100920.06;5050862;28;20079;-72
2022/09/30 04:22:50;;;;;;;4.55;2.95;;;;;;;14.04;54.17;100928.75;5051762;28;20029;-72
2022/09/30 04:25:15;;;;;;;3.70;2.50;;;;;;;14.08;54.61;100920.94;5050905;28;20047;-71
2022/09/30 04:27:41;;;;;;;2.72;2.50;;;;;;;13.98;54.34;100927.00;5051006;28;20040;-72
2022/09/30 04:30:06;;;;;;;4.93;2.22;;;;;;;14.05;53.96;100926.88;5050894;28;20139;-71
2022/09/30 04:32:32;;;;;;;2.85;2.13;;;;;;;13.90;53.77;100921.19;5038545;28;20038;-71
2022/09/30 04:34:57;;;;;;;6.82;2.03;;;;;;;13.87;54.05;100929.78;5031346;28;20033;-72
2022/09/30 04:37:23;;;;;;;6.15;2.47;;;;;;;13.81;53.96;100934.31;5029365;28;20067;-71
2022/09/30 04:39:49;;;;;;;3.65;2.40;;;;;;;13.83;54.01;100939.44;5031408;28;20033;-71
2022/09/30 04:42:15;;;;;;;2.92;2.50;;;;;;;13.89;53.85;100938.47;5032359;28;20432;-73
2022/09/30 04:44:40;;;;;;;3.13;2.78;;;;;;;13.76;53.91;100945.00;5027779;28;20413;-72
2022/09/30 04:47:06;;;;;;;2.42;2.13;;;;;;;13.86;53.88;100941.66;5030298;28;20064;-72
2022/09/30 04:49:31;;;;;;;3.00;2.58;;;;;;;13.79;53.61;100939.13;5029704;28;20053;-72
2022/09/30 04:51:56;;;;;;;3.35;2.53;;;;;;;13.88;53.68;100944.94;5030014;28;20439;-71
2022/09/30 04:54:23;;;;;;;4.35;2.40;;;;;;;13.85;53.38;100940.84;5029904;28;20547;-72
2022/09/30 04:56:48;;;;;;;3.15;2.58;;;;;;;13.75;53.46;100947.94;5029941;28;20076;-71
2022/09/30 04:59:13;;;;;;;4.00;2.42;;;;;;;13.76;53.70;100945.00;5029916;28;20431;-73
2022/09/30 05:01:41;;;;;;;3.45;2.60;;;;;;;13.83;53.86;100945.69;5030136;28;20052;-73
2022/09/30 05:04:07;;;;;;;10.55;2.90;;;;;;;13.77;53.89;100951.22;5030396;28;20052;-72
2022/09/30 05:06:32;;;;;;;10.73;3.00;;;;;;;13.80;53.50;100945.31;5035391;28;20049;-73
2022/09/30 05:08:57;;;;;;;3.95;3.13;;;;;;;13.80;53.56;100948.84;5035278;28;20052;-72
2022/09/30 05:11:23;;;;;;;3.13;2.58;;;;;;;13.81;53.47;100952.38;5034292;28;20059;-72
2022/09/30 05:13:49;;;;;;;3.45;2.78;;;;;;;13.64;53.54;100949.63;5035016;28;20433;-74
2022/09/30 05:16:15;;;;;;;7.20;2.97;;;;;;;13.60;53.66;100943.06;5034798;28;20033;-73
2022/09/30 05:18:44;;;;;;;4.88;3.05;;;;;;;13.60;53.49;100948.47;5034370;28;20516;-72
2022/09/30 05:21:11;;;;;;;3.20;2.60;;;;;;;13.59;53.73;100960.34;5034206;28;20064;-71
2022/09/30 05:23:37;;;;;;;5.13;2.80;;;;;;;13.57;53.92;100961.66;5042310;28;20120;-73
2022/09/30 05:26:03;;;;;;;4.22;2.40;;;;;;;13.70;53.72;100955.97;5053250;28;20520;-74
2022/09/30 05:28:30;;;;;;;4.95;3.58;;;;;;;13.68;53.77;100956.19;5044840;28;20029;-73
2022/09/30 05:31:04;;;;;;;5.18;3.22;;;;;;;13.66;53.97;100958.31;5042841;28;20485;-72
2022/09/30 05:33:30;;;;;;;5.97;3.03;;;;;;;13.60;53.88;100961.19;5039877;28;20033;-72
2022/09/30 05:36:01;;;;;;;6.38;2.97;;;;;;;13.67;54.12;100961.84;5044940;28;20084;-71
2022/09/30 05:38:26;;;;;;;6.25;2.95;;;;;;;13.63;54.11;100966.91;5037366;28;20054;-72
2022/09/30 05:40:53;;;;;;;5.50;3.30;;;;;;;13.56;54.47;100968.91;5041956;28;20472;-73
2022/09/30 05:43:21;;;;;;;4.20;3.13;;;;;;;13.54;54.30;100972.94;5044978;28;20037;-71
2022/09/30 05:45:56;;;;;;;5.57;3.60;;;;;;;13.56;54.09;100970.81;5043469;28;20046;-71
2022/09/30 05:48:24;;;;;;;6.13;3.33;;;;;;;13.59;54.02;100981.13;5034118;28;20049;-72
2022/09/30 05:50:53;;;;;;;5.53;4.43;;;;;;;13.53;53.80;100990.19;5033725;28;20519;-72
2022/09/30 05:53:19;;;;;;;5.57;3.15;;;;;;;13.50;53.93;100993.38;5033841;28;20076;-72
2022/09/30 05:55:49;;;;;;;6.47;3.35;;;;;;;13.42;53.70;100994.59;5049956;28;20508;-73
2022/09/30 05:58:15;;;;;;;7.07;3.77;;;;;;;13.56;53.91;100993.22;5033681;28;20037;-73
2022/09/30 06:00:43;;;;;;;5.22;3.25;;;;;;;13.47;54.14;100989.28;5036242;28;20485;-73
2022/09/30 06:03:08;;;;;;;4.45;3.72;;;;;;;13.48;53.87;100984.72;5033644;28;20034;-73
2022/09/30 06:05:33;;;;;;;7.32;3.38;;;;;;;13.49;54.21;100989.84;5033617;28;20037;-74
2022/09/30 06:07:59;;;;;;;6.15;3.60;;;;;;;13.66;54.01;100990.72;5039481;28;20042;-73
2022/09/30 06:10:25;;;;;;;9.27;3.95;;;;;;;13.64;54.11;101000.16;5034310;28;20037;-75
2022/09/30 06:12:51;;;;;;;10.35;4.57;;;;;;;13.81;53.83;100995.59;5036542;28;20136;-71
2022/09/30 06:15:16;;;;;;;7.65;3.60;;;;;;;13.58;54.53;100993.81;5041695;28;20056;-70
2022/09/30 06:17:42;;;;;;;8.93;4.40;;;;;;;13.72;54.25;101002.47;5042015;28;20036;-71
2022/09/30 06:20:09;;;;;;;5.93;4.40;;;;;;;13.85;54.38;101008.38;5041385;28;20132;-71
2022/09/30 06:22:35;;;;;;;8.63;4.63;;;;;;;13.76;54.69;101009.00;5039947;28;20036;-70
2022/09/30 06:25:05;;;;;;;8.90;5.05;;;;;;;13.84;54.79;101017.53;5038426;28;20033;-72
2022/09/30 06:27:32;;;;;;;9.23;5.60;;;;;;;13.92;54.11;101014.44;5042292;28;20047;-71
2022/09/30 06:29:58;;;;;;;4.93;4.13;;;;;;;13.94;54.46;101019.59;5052985;28;20051;-71
2022/09/30 06:32:25;;;;;;;8.80;5.03;;;;;;;13.98;54.07;101009.94;5023591;28;20038;-70
2022/09/30 06:34:51;;;;;;;5.90;4.60;;;;;;;13.89;54.55;101016.81;5022407;28;20499;-71
2022/09/30 06:37:17;;;;;;;10.63;5.10;;;;;;;14.01;54.74;101018.38;5023496;28;20029;-71
2022/09/30 06:39:43;;;;;;;6.75;5.35;;;;;;;14.17;54.74;101022.16;5024328;28;20068;-71
2022/09/30 06:42:10;;;;;;;8.02;5.38;;;;;;;14.25;54.49;101013.66;5023174;28;20038;-70
2022/09/30 06:44:35;;;;;;;15.18;5.68;;;;;;;14.24;54.57;101019.31;5024042;28;20041;-70
2022/09/30 06:47:01;;;;;;;16.65;5.75;;;;;;;14.25;54.56;101016.34;5024202;28;20538;-73
2022/09/30 06:49:27;;;;;;;10.35;6.20;;;;;;;14.30;54.57;101019.19;5023087;28;20505;-73
2022/09/30 06:51:52;;;;;;;9.30;5.90;;;;;;;14.39;54.00;101014.19;5024370;28;20045;-72
2022/09/30 06:54:19;;;;;;;7.85;6.38;;;;;;;14.51;54.52;101010.34;5023440;28;20030;-71
2022/09/30 06:56:46;;;;;;;10.00;6.55;;;;;;;14.54;54.73;101012.56;5025886;28;20033;-70
2022/09/30 06:59:13;;;;;;;10.27;5.57;;;;;;;14.54;54.88;101009.88;5025663;28;20038;-71
2022/09/30 07:01:38;;;;;;;6.72;5.25;;;;;;;14.35;56.00;101008.44;5026865;28;20368;-72
2022/09/30 07:04:08;;;;;;;9.98;6.15;;;;;;;14.64;55.56;101011.91;5026720;28;20049;-72
2022/09/30 07:06:33;;;;;;;9.65;6.47;;;;;;;14.77;54.97;101022.38;5027213;28;20075;-73
2022/09/30 07:08:59;;;;;;;8.23;5.28;;;;;;;14.72;54.72;101020.41;5030891;28;20037;-72
2022/09/30 07:11:24;;;;;;;8.93;5.70;;;;;;;14.93;54.50;101016.13;5030342;28;20119;-71
2022/09/30 07:13:49;;;;;;;6.75;5.47;;;;;;;14.98;54.69;101018.06;5027534;28;20152;-71
2022/09/30 07:16:17;;;;;;;7.28;5.57;;;;;;;15.08;54.35;101015.47;5026342;28;20129;-72
2022/09/30 07:18:44;;;;;;;8.65;5.43;;;;;;;15.27;53.98;101017.63;5026634;28;20030;-71
2022/09/30 07:21:14;;;;;;;7.32;5.72;;;;;;;15.11;54.35;101015.00;5023387;28;20044;-71
2022/09/30 07:23:46;;;;;;;8.25;5.70;;;;;;;15.31;53.98;101017.97;5030485;28;20375;-72
2022/09/30 07:26:16;;;;;;;8.68;5.80;;;;;;;15.31;53.98;101010.66;5030550;28;20429;-71
2022/09/30 07:28:42;;;;;;;8.80;6.50;;;;;;;15.42;54.00;101007.03;5030377;28;20038;-72
2022/09/30 07:31:15;;;;;;;8.45;6.28;;;;;;;15.57;53.80;101009.91;5029396;28;20120;-71
2022/09/30 07:33:41;;;;;;;10.00;6.07;;;;;;;15.62;53.60;101010.00;5030283;28;20036;-70
2022/09/30 07:36:07;;;;;;;11.57;6.50;;;;;;;15.59;53.17;101009.66;5030306;28;20160;-72
2022/09/30 07:38:36;;;;;;;9.20;6.78;;;;;;;15.63;53.29;101014.31;5031065;28;20068;-71
2022/09/30 07:41:06;;;;;;;9.98;6.47;;;;;;;15.79;53.34;101015.31;5030357;28;20037;-74
2022/09/30 07:43:37;;;;;;;7.88;6.18;;;;;;;15.83;53.11;101011.00;5030215;28;20140;-73
2022/09/30 07:46:25;;;;;;;9.63;6.45;;;;;;;15.99;52.75;101020.13;5030081;28;20481;-71
2022/09/30 07:48:55;;;;;;;8.77;6.60;;;;;;;16.15;52.67;101016.47;5030234;28;20045;-72
2022/09/30 07:51:34;;;;;;;7.25;5.32;;;;;;;16.08;52.99;101019.38;5030138;28;20045;-71
2022/09/30 07:54:03;;;;;;;9.93;6.50;;;;;;;16.22;52.67;101014.38;5030141;28;20460;-73
2022/09/30 07:56:28;;;;;;;8.88;5.97;;;;;;;16.20;52.97;101009.19;5029687;28;20029;-72
2022/09/30 07:58:56;;;;;;;11.30;6.53;;;;;;;16.51;52.38;101015.75;5030439;28;20136;-73
2022/09/30 08:01:23;;;;;;;7.72;6.40;;;;;;;16.44;52.71;101009.66;5030531;28;20257;-76
2022/09/30 08:03:52;;;;;;;8.63;6.80;;;;;;;16.67;52.11;101010.16;5029997;28;20037;-77
2022/09/30 08:06:19;;;;;;;11.40;7.15;;;;;;;16.64;52.18;101007.97;5029542;28;20037;-74
2022/09/30 08:08:45;;;;;;;9.52;6.30;;;;;;;16.79;52.34;101007.25;5030483;28;20041;-72
2022/09/30 08:11:11;;;;;;;10.95;7.63;;;;;;;16.95;52.17;101002.72;5029562;28;20033;-74
2022/09/30 08:13:37;;;;;;;10.48;7.68;;;;;;;16.70;52.76;101008.81;5030313;28;20187;-75
2022/09/30 08:16:04;;;;;;;9.13;6.53;;;;;;;16.97;52.14;101009.53;5036342;28;20360;-73
2022/09/30 08:18:29;;;;;;;14.82;7.00;;;;;;;17.09;51.79;101003.88;5031215;28;20044;-74
2022/09/30 08:20:55;;;;;;;8.73;7.10;;;;;;;16.94;52.17;100999.22;5031697;28;20409;-73
2022/09/30 08:23:20;;;;;;;9.38;6.97;;;;;;;17.29;51.29;101004.81;5031521;28;20029;-74
2022/09/30 08:25:46;;;;;;;13.07;8.23;;;;;;;17.24;51.63;101009.38;5030095;28;20045;-75
2022/09/30 08:28:12;;;;;;;9.38;7.45;;;;;;;17.25;51.88;101008.31;5030233;28;20449;-72
2022/09/30 08:30:38;;;;;;;10.85;7.70;;;;;;;17.53;51.72;101006.00;5029917;28;20025;-74
2022/09/30 08:33:03;;;;;;;11.48;8.70;;;;;;;17.68;51.32;101016.13;5030269;28;20536;-74
2022/09/30 08:35:29;;;;;;;10.60;7.60;;;;;;;17.79;51.06;101022.41;5030160;28;20061;-75
2022/09/30 08:37:55;;;;;;;11.60;8.80;;;;;;;17.62;51.82;101013.63;5029578;28;20053;-73
2022/09/30 08:40:25;;;;;;;11.13;8.88;;;;;;;18.00;50.78;101019.47;5028965;28;20512;-73
2022/09/30 08:42:53;;;;;;;16.20;8.75;;;;;;;18.03;50.80;101028.97;5029939;28;20041;-73
2022/09/30 08:45:21;;;;;;;15.27;9.27;;;;;;;18.15;51.00;101033.06;5028728;28;20048;-75
2022/09/30 08:47:57;;;;;;;12.95;10.32;;;;;;;18.22;51.09;101027.38;5028814;28;20504;-74
2022/09/30 08:50:44;;;;;;;12.52;9.25;;;;;;;18.40;50.98;101027.63;5028571;28;20029;-75
2022/09/30 08:53:29;;;;;;;15.57;10.50;;;;;;;18.58;51.08;101022.75;5028671;28;20025;-75
2022/09/30 08:55:56;;;;;;;11.40;9.55;;;;;;;18.70;50.52;101023.28;5029217;28;20025;-74
2022/09/30 08:58:36;;;;;;;14.85;10.68;;;;;;;18.84;50.85;101013.47;5028686;28;20037;-74
2022/09/30 09:01:39;;;;;;;18.90;10.80;;;;;;;18.79;51.06;101025.19;5030001;28;20041;-74
2022/09/30 09:04:07;;;;;;;13.75;9.70;;;;;;;18.94;50.89;101027.06;4948633;29;20450;-73
2022/09/30 09:06:56;;;;;;;14.82;9.98;;;;;;;18.96;50.44;101017.53;4948086;29;20046;-74
2022/09/30 09:09:56;;;;;;;12.65;9.32;;;;;;;19.09;49.91;101014.22;4948682;29;20047;-76
2022/09/30 09:12:30;;;;;;;20.80;9.95;;;;;;;19.42;49.25;101017.41;4947674;28;20066;-73
2022/09/30 09:15:26;;;;;;;13.75;9.75;;;;;;;19.47;49.11;101006.47;4947707;29;20031;-75
2022/09/30 09:18:21;;;;;;;20.63;10.18;;;;;;;19.40;49.31;101008.72;4946754;29;20496;-75
2022/09/30 09:20:58;;;;;;;14.63;9.68;;;;;;;19.42;49.40;101011.97;4948321;28;20043;-75
2022/09/30 09:23:27;;;;;;;14.30;9.45;;;;;;;19.21;50.39;101013.91;4943789;29;20354;-73
2022/09/30 09:25:54;;;;;;;15.57;10.43;;;;;;;19.75;49.12;101017.50;4948488;29;20044;-72
2022/09/30 09:28:22;;;;;;;14.45;10.38;;;;;;;19.77;49.06;101020.75;4947970;29;20044;-75
2022/09/30 09:30:55;;;;;;;15.88;10.57;;;;;;;20.14;48.04;101021.09;4949249;28;20081;-73
2022/09/30 09:33:26;;;;;;;17.13;10.63;;;;;;;20.37;47.88;101030.50;4947851;29;20050;-74
2022/09/30 09:35:57;;;;;;;19.33;10.38;;;;;;;20.49;47.79;101022.75;4947698;29;20032;-74
2022/09/30 09:38:25;;;;;;;13.20;10.23;;;;;;;20.15;48.45;101032.81;4999138;28;20091;-74
2022/09/30 09:41:03;;;;;;;15.55;10.75;;;;;;;20.72;47.13;101023.91;5029836;28;20025;-74
2022/09/30 09:43:42;;;;;;;12.48;9.07;;;;;;;21.17;46.72;101014.47;5028522;28;20478;-77
2022/09/30 09:46:26;;;;;;;15.18;9.00;;;;;;;20.73;46.92;101014.63;5029753;28;20045;-72
2022/09/30 09:49:15;;;;;;;10.48;8.82;;;;;;;20.93;46.09;101017.16;5028829;28;20041;-74
2022/09/30 09:51:57;;;;;;;14.20;8.68;;;;;;;20.75;46.78;101021.44;5025317;28;20045;-74
2022/09/30 09:54:26;;;;;;;15.75;9.85;;;;;;;21.49;46.10;101014.59;5031616;28;20068;-72
2022/09/30 09:56:53;;;;;;;23.20;11.95;;;;;;;21.84;45.33;101011.41;5032439;28;20041;-73
2022/09/30 09:59:19;;;;;;;20.33;12.02;;;;;;;21.87;45.22;101012.75;5030829;28;20041;-71
2022/09/30 10:01:50;;;;;;;16.08;11.77;;;;;;;22.02;44.99;101009.78;5032151;28;20033;-72
2022/09/30 10:04:24;;;;;;;17.10;12.45;;;;;;;22.18;44.63;101009.25;5032663;28;20447;-72
2022/09/30 10:06:59;;;;;;;14.80;11.55;;;;;;;21.97;44.32;101005.22;5032116;28;20075;-70
2022/09/30 10:09:25;;;;;;;16.42;12.20;;;;;;;21.98;44.02;101012.28;5032002;28;20030;-73
2022/09/30 10:12:14;;;;;;;15.80;11.13;;;;;;;21.91;44.36;101000.91;5035402;28;20029;-75
2022/09/30 10:14:56;;;;;;;15.55;12.25;;;;;;;22.00;44.06;101006.50;5031477;28;20038;-75
2022/09/30 10:17:34;;;;;;;15.13;12.05;;;;;;;21.99;43.74;101002.97;5031675;28;20157;-74
2022/09/30 10:20:15;;;;;;;17.65;11.73;;;;;;;22.27;42.92;101006.66;5032016;28;20070;-75
2022/09/30 10:22:40;;;;;;;;;;;;;;;22.18;43.68;101006.50;5032337;28;20145;-73
2022/09/30 10:25:11;;;;;;;13.90;11.30;;;;;;;22.52;43.01;100998.00;5034730;28;19936;-74
2022/09/30 10:27:48;;;;;;;20.00;13.25;;;;;;;22.79;42.29;101002.75;5037590;28;20036;-74
2022/09/30 10:30:30;;;;;;;16.05;10.88;;;;;;;22.43;41.15;100997.88;5039107;28;20046;-76
2022/09/30 10:32:56;;;;;;;14.68;10.13;;;;;;;22.43;42.78;100986.09;5033689;28;20034;-75
2022/09/30 10:35:23;;;;;;;10.98;9.70;;;;;;;22.94;41.46;100992.31;5031185;28;20112;-73
2022/09/30 10:37:53;;;;;;;11.55;8.98;;;;;;;23.36;40.60;100996.72;5031746;28;20128;-77
2022/09/30 10:40:26;;;;;;;11.20;8.02;;;;;;;23.83;39.43;100989.91;5031278;28;20053;-76
2022/09/30 10:42:53;;;;;;;11.77;5.95;;;;;;;23.35;39.13;100993.16;5033796;28;20029;-76
2022/09/30 10:45:27;;;;;;;4.43;3.40;;;;;;;23.75;38.25;100991.47;5033456;28;20516;-73
2022/09/30 10:47:55;;;;;;;5.88;3.28;;;;;;;23.97;37.32;100982.44;5030805;28;20033;-74
2022/09/30 10:50:26;;;;;;;12.45;5.85;;;;;;;24.00;37.84;100987.34;5031003;28;20072;-75
2022/09/30 10:53:03;;;;;;;9.77;5.47;;;;;;;23.88;37.64;100981.56;5031739;28;20029;-74
2022/09/30 10:55:41;;;;;;;5.65;4.50;;;;;;;24.02;37.31;100977.69;5032274;28;20036;-75
2022/09/30 10:58:37;;;;;;;9.15;4.47;;;;;;;23.84;37.54;100984.09;5033464;28;20045;-77
2022/09/30 11:01:12;;;;;;;3.95;2.78;;;;;;;23.66;37.19;100979.59;5036470;28;20080;-74
2022/09/30 11:04:04;;;;;;;5.10;3.15;;;;;;;24.35;36.39;100976.28;5031513;28;20042;-77
2022/09/30 11:06:37;;;;;;;3.05;2.10;;;;;;;23.57;35.90;100981.44;5034714;28;20040;-75
2022/09/30 11:09:10;;;;;;;2.35;1.55;;;;;;;23.18;36.11;100984.72;5036974;28;20044;-77
2022/09/30 11:11:44;;;;;;;4.60;1.92;;;;;;;22.70;37.42;100976.03;5039649;28;20114;-77
2022/09/30 11:14:21;;;;;;;5.88;2.53;;;;;;;23.65;36.03;100963.44;5036980;28;20033;-72
2022/09/30 11:17:09;;;;;;;2.75;2.40;;;;;;;23.77;36.03;100964.53;5035294;28;20166;-76
2022/09/30 11:20:08;;;;;;;3.08;2.63;;;;;;;23.01;37.09;100959.84;5028544;28;20037;-76
2022/09/30 11:22:52;;;;;;;4.72;1.98;;;;;;;23.86;35.92;100957.16;5030845;28;20535;-75
2022/09/30 11:25:47;;;;;;;2.95;1.70;;;;;;;23.38;35.79;100959.63;5030885;28;20026;-75
2022/09/30 11:28:40;;;;;;;2.97;2.00;;;;;;;22.46;37.14;100963.59;5029039;28;20045;-71
2022/09/30 11:31:21;;;;;;;5.57;2.50;;;;;;;23.17;35.22;100963.09;5030295;28;20129;-73
2022/09/30 11:34:01;;;;;;;6.10;2.58;;;;;;;22.70;35.85;100959.59;5030699;28;20402;-77
2022/09/30 11:36:45;;;;;;;;;;;;;;;24.24;34.93;100955.72;5032080;28;20036;-75
2022/09/30 11:39:53;;;;;;;6.70;3.38;;;;;;;23.62;34.49;100948.41;5031925;28;20018;-74
2022/09/30 11:42:32;;;;;;;4.47;2.65;;;;;;;24.66;33.53;100942.53;5032920;28;20092;-76
2022/09/30 11:45:08;;;;;;;6.23;3.60;;;;;;;23.76;34.16;100949.19;5030830;28;20037;-76
2022/09/30 11:48:06;;;;;;;5.47;3.67;;;;;;;24.09;34.95;100934.13;5027935;28;20057;-75